createdAt,value
2022-09-09T05:02:34.431Z,63.34
2022-09-09T05:08:10.329Z,62.76
2022-09-09T05:13:33.010Z,62.15
2022-09-09T05:18:54.603Z,62.11
2022-09-09T05:24:16.005Z,62.46
2022-09-09T05:29:37.482Z,62.75
2022-09-09T05:35:00.938Z,62.63
2022-09-09T05:40:22.705Z,63.66
2022-09-09T05:45:44.241Z,62.70
2022-09-09T05:51:07.917Z,62.48
2022-09-09T05:56:30.351Z,62.25
2022-09-09T06:01:54.269Z,61.96
2022-09-09T06:07:21.133Z,62.23
2022-09-09T06:12:42.431Z,62.13
2022-09-09T06:18:03.823Z,62.37
2022-09-09T06:23:26.271Z,62.22
2022-09-09T06:28:48.754Z,62.45
2022-09-09T06:34:09.982Z,62.23
2022-09-09T06:39:34.965Z,61.46
2022-09-09T06:44:56.305Z,61.31
2022-09-09T06:50:31.475Z,61.14
2022-09-09T06:55:52.812Z,60.95
2022-09-09T07:01:20.267Z,62.56
2022-09-09T07:06:47.106Z,61.47
2022-09-09T07:12:13.723Z,60.33
2022-09-09T07:17:42.012Z,59.54
2022-09-09T07:23:03.027Z,59.15
2022-09-09T07:28:25.038Z,58.64
2022-09-09T07:33:46.601Z,58.62
2022-09-09T07:39:11.391Z,57.58
2022-09-09T07:44:35.892Z,56.78
2022-09-09T07:50:05.692Z,55.70
2022-09-09T07:55:27.530Z,54.42
2022-09-09T08:00:49.105Z,53.40
2022-09-09T08:06:10.304Z,52.20
2022-09-09T08:11:36.677Z,50.76
2022-09-09T08:17:00.008Z,50.17
2022-09-09T08:22:23.136Z,48.99
2022-09-09T08:27:44.784Z,47.97
2022-09-09T08:33:06.435Z,46.99
2022-09-09T08:38:29.649Z,46.91
2022-09-09T08:43:59.961Z,45.53
2022-09-09T08:49:29.613Z,37.13
2022-09-09T08:54:52.906Z,35.06
2022-09-09T09:00:16.072Z,27.33
2022-09-09T09:05:41.474Z,25.55
2022-09-09T09:11:03.425Z,32.22
2022-09-09T09:16:40.016Z,36.07
2022-09-09T09:22:23.452Z,40.01
2022-09-09T09:27:56.165Z,41.00
2022-09-09T09:33:21.570Z,43.13
2022-09-09T09:44:38.513Z,43.72
2022-09-09T09:50:20.019Z,39.47
2022-09-09T09:55:54.032Z,35.06
2022-09-09T10:01:34.314Z,29.55
2022-09-09T10:06:59.111Z,27.65
2022-09-09T10:12:45.277Z,21.51
2022-09-09T10:18:24.693Z,16.84
2022-09-09T10:24:20.119Z,23.17
2022-09-09T10:30:03.448Z,29.99
2022-09-09T10:35:36.120Z,33.33
2022-09-09T10:40:57.639Z,34.42
2022-09-09T10:46:21.723Z,30.18
2022-09-09T10:51:46.198Z,23.41
2022-09-09T10:57:18.959Z,20.84
2022-09-09T11:02:43.014Z,20.11
2022-09-09T11:08:19.094Z,20.34
2022-09-09T11:13:43.825Z,22.71
2022-09-09T11:19:15.167Z,25.02
2022-09-09T11:24:46.592Z,28.99
2022-09-09T11:30:37.700Z,24.95
2022-09-09T11:36:20.724Z,25.70
2022-09-09T11:41:41.712Z,30.97
2022-09-09T11:47:02.905Z,33.79
2022-09-09T11:52:36.582Z,33.02
2022-09-09T11:58:01.479Z,33.41
2022-09-09T12:03:38.187Z,31.85
2022-09-09T12:09:09.497Z,29.32
2022-09-09T12:14:55.718Z,28.51
2022-09-09T12:20:23.015Z,28.00
2022-09-09T12:26:01.995Z,28.97
2022-09-09T12:31:54.509Z,32.40
2022-09-09T12:37:27.490Z,29.38
2022-09-09T12:42:48.473Z,29.47
2022-09-09T12:48:16.716Z,30.84
2022-09-09T12:53:39.956Z,31.51
2022-09-09T12:59:01.853Z,32.16
2022-09-09T13:04:25.323Z,32.43
2022-09-09T13:09:47.871Z,33.08
2022-09-09T13:15:21.422Z,33.51
2022-09-09T13:20:50.208Z,34.92
2022-09-09T13:26:24.930Z,34.62
2022-09-09T13:31:46.555Z,35.66
2022-09-09T13:37:24.538Z,36.21
2022-09-09T13:42:46.000Z,37.09
2022-09-09T13:48:11.578Z,37.14
2022-09-09T13:53:32.828Z,38.06
2022-09-09T13:58:53.848Z,38.34
2022-09-09T14:04:14.799Z,38.67
2022-09-09T14:09:35.931Z,38.67
2022-09-09T14:14:56.984Z,38.87
2022-09-09T14:20:18.577Z,39.03
2022-09-09T14:25:42.383Z,39.03
2022-09-09T14:31:04.929Z,39.15
2022-09-09T14:36:25.965Z,38.74
2022-09-09T14:41:47.005Z,38.83
2022-09-09T14:47:11.794Z,39.18
2022-09-09T14:52:33.096Z,39.47
2022-09-09T14:57:56.776Z,40.09
2022-09-09T15:03:18.098Z,39.84
2022-09-09T15:08:42.530Z,39.82
2022-09-09T15:14:03.734Z,39.78
2022-09-09T15:19:24.527Z,40.00
2022-09-09T15:24:45.304Z,40.37
2022-09-09T15:30:06.997Z,41.34
2022-09-09T15:35:27.841Z,41.11
2022-09-09T15:40:55.507Z,41.96
2022-09-09T15:46:39.187Z,41.84
2022-09-09T15:52:04.583Z,42.20
2022-09-09T15:57:25.465Z,42.74
2022-09-09T16:02:48.414Z,42.82
2022-09-09T16:08:09.160Z,42.38
2022-09-09T16:13:33.733Z,42.65
2022-09-09T16:18:56.973Z,43.03
2022-09-09T16:24:20.377Z,43.19
2022-09-09T16:29:41.383Z,43.62
2022-09-09T16:35:02.143Z,43.67
2022-09-09T16:40:23.059Z,44.18
2022-09-09T16:45:45.405Z,44.43
2022-09-09T16:51:15.206Z,44.81
2022-09-09T16:56:44.088Z,45.32
2022-09-09T17:02:06.086Z,45.23
2022-09-09T17:07:27.072Z,45.22
2022-09-09T17:12:47.816Z,45.44
2022-09-09T17:18:08.803Z,45.80
2022-09-09T17:23:29.979Z,46.17
2022-09-09T17:28:50.996Z,46.27
2022-09-09T17:34:11.920Z,46.67
2022-09-09T17:39:33.408Z,46.94
2022-09-09T17:44:54.238Z,47.21
2022-09-09T17:50:15.007Z,47.38
2022-09-09T17:55:35.942Z,47.23
2022-09-09T18:00:56.833Z,47.88
2022-09-09T18:06:24.171Z,48.21
2022-09-09T18:11:48.558Z,48.04
2022-09-09T18:17:09.817Z,48.16
2022-09-09T18:22:31.686Z,48.46
2022-09-09T18:27:53.483Z,48.72
2022-09-09T18:33:14.702Z,48.92
2022-09-09T18:38:36.135Z,49.17
2022-09-09T18:44:03.393Z,49.65
2022-09-09T18:49:25.101Z,49.69
2022-09-09T18:54:47.990Z,49.86
2022-09-09T19:00:10.424Z,49.99
2022-09-09T19:05:31.532Z,49.91
2022-09-09T19:10:53.150Z,49.95
2022-09-09T19:16:15.282Z,50.70
2022-09-09T19:21:38.756Z,50.71
2022-09-09T19:27:02.264Z,50.88
2022-09-09T19:32:52.287Z,51.14
2022-09-09T19:38:04.103Z,51.05
2022-09-09T19:43:24.989Z,51.10
2022-09-09T19:48:47.067Z,51.14
2022-09-09T19:54:10.767Z,50.89
2022-09-09T19:59:31.631Z,50.97
2022-09-09T20:04:52.486Z,51.30
2022-09-09T20:10:13.366Z,51.42
2022-09-09T20:15:34.224Z,51.61
2022-09-09T20:21:05.459Z,52.04
2022-09-09T20:26:30.393Z,51.72
2022-09-09T20:31:51.984Z,51.55
2022-09-09T20:37:13.727Z,51.78
2022-09-09T20:42:34.967Z,51.50
2022-09-09T20:47:57.087Z,51.71
2022-09-09T20:53:18.105Z,52.13
2022-09-09T20:58:39.229Z,52.51
2022-09-09T21:04:00.166Z,52.41
2022-09-09T21:09:24.612Z,52.32
2022-09-09T21:14:45.393Z,52.74
2022-09-09T21:20:06.933Z,52.79
2022-09-09T21:25:27.855Z,52.90
2022-09-09T21:30:54.839Z,52.87
2022-09-09T21:36:16.034Z,52.76
2022-09-09T21:41:37.030Z,52.94
2022-09-09T21:46:57.608Z,54.45
2022-09-09T21:52:18.170Z,53.50
2022-09-09T21:57:38.741Z,54.49
